sensor_id;sensor_type;location;lat;lon;timestamp;P1;durP1;ratioP1;P2;durP2;ratioP2
46455;SDS011;32154;47.160;8.120;2022-09-09T00:00:23;1.63;;;1.23;;
46455;SDS011;32154;47.160;8.120;2022-09-09T00:05:55;1.50;;;0.93;;
46455;SDS011;32154;47.160;8.120;2022-09-09T00:11:06;1.85;;;0.70;;
46455;SDS011;32154;47.160;8.120;2022-09-09T00:21:21;2.03;;;0.80;;
46455;SDS011;32154;47.160;8.120;2022-09-09T00:26:42;1.67;;;0.60;;
46455;SDS011;32154;47.160;8.120;2022-09-09T00:31:50;2.38;;;0.80;;
46455;SDS011;32154;47.160;8.120;2022-09-09T00:37:00;2.30;;;0.90;;
46455;SDS011;32154;47.160;8.120;2022-09-09T00:47:46;1.23;;;0.65;;
46455;SDS011;32154;47.160;8.120;2022-09-09T00:58:31;2.92;;;1.05;;
46455;SDS011;32154;47.160;8.120;2022-09-09T01:03:35;1.33;;;0.70;;
46455;SDS011;32154;47.160;8.120;2022-09-09T01:31:14;1.23;;;0.73;;
46455;SDS011;32154;47.160;8.120;2022-09-09T01:36:24;1.60;;;0.80;;
46455;SDS011;32154;47.160;8.120;2022-09-09T01:41:34;2.55;;;0.77;;
46455;SDS011;32154;47.160;8.120;2022-09-09T01:46:43;2.33;;;1.13;;
46455;SDS011;32154;47.160;8.120;2022-09-09T01:52:03;3.80;;;1.10;;
46455;SDS011;32154;47.160;8.120;2022-09-09T01:57:25;1.63;;;1.05;;
46455;SDS011;32154;47.160;8.120;2022-09-09T02:02:36;4.57;;;0.88;;
46455;SDS011;32154;47.160;8.120;2022-09-09T02:08:00;2.25;;;1.33;;
46455;SDS011;32154;47.160;8.120;2022-09-09T02:13:19;4.50;;;1.17;;
46455;SDS011;32154;47.160;8.120;2022-09-09T02:18:26;1.77;;;1.10;;
46455;SDS011;32154;47.160;8.120;2022-09-09T02:23:32;1.42;;;1.17;;
46455;SDS011;32154;47.160;8.120;2022-09-09T02:28:41;1.23;;;1.00;;
46455;SDS011;32154;47.160;8.120;2022-09-09T02:33:44;4.25;;;0.98;;
46455;SDS011;32154;47.160;8.120;2022-09-09T02:38:51;1.60;;;0.83;;
46455;SDS011;32154;47.160;8.120;2022-09-09T02:43:57;1.33;;;0.90;;
46455;SDS011;32154;47.160;8.120;2022-09-09T02:49:02;2.72;;;1.20;;
46455;SDS011;32154;47.160;8.120;2022-09-09T02:54:24;1.45;;;1.35;;
46455;SDS011;32154;47.160;8.120;2022-09-09T02:59:30;1.88;;;1.40;;
46455;SDS011;32154;47.160;8.120;2022-09-09T03:04:40;3.63;;;1.10;;
46455;SDS011;32154;47.160;8.120;2022-09-09T03:09:43;1.63;;;1.25;;
46455;SDS011;32154;47.160;8.120;2022-09-09T03:14:46;1.77;;;1.08;;
46455;SDS011;32154;47.160;8.120;2022-09-09T03:19:51;7.53;;;1.25;;
46455;SDS011;32154;47.160;8.120;2022-09-09T03:25:13;2.00;;;1.42;;
46455;SDS011;32154;47.160;8.120;2022-09-09T03:30:18;2.00;;;1.38;;
46455;SDS011;32154;47.160;8.120;2022-09-09T03:35:44;4.18;;;1.30;;
46455;SDS011;32154;47.160;8.120;2022-09-09T03:40:48;2.15;;;1.27;;
46455;SDS011;32154;47.160;8.120;2022-09-09T03:46:10;4.40;;;1.15;;
46455;SDS011;32154;47.160;8.120;2022-09-09T03:51:13;1.67;;;1.40;;
46455;SDS011;32154;47.160;8.120;2022-09-09T03:56:18;1.55;;;1.08;;
46455;SDS011;32154;47.160;8.120;2022-09-09T04:01:40;3.70;;;1.40;;
46455;SDS011;32154;47.160;8.120;2022-09-09T04:06:43;4.43;;;1.77;;
46455;SDS011;32154;47.160;8.120;2022-09-09T04:11:46;2.28;;;1.33;;
46455;SDS011;32154;47.160;8.120;2022-09-09T04:16:49;2.67;;;1.10;;
46455;SDS011;32154;47.160;8.120;2022-09-09T04:21:52;1.55;;;0.90;;
46455;SDS011;32154;47.160;8.120;2022-09-09T04:26:56;5.75;;;1.27;;
46455;SDS011;32154;47.160;8.120;2022-09-09T04:31:59;2.35;;;0.85;;
46455;SDS011;32154;47.160;8.120;2022-09-09T04:37:01;2.47;;;0.80;;
46455;SDS011;32154;47.160;8.120;2022-09-09T04:42:04;3.35;;;0.98;;
46455;SDS011;32154;47.160;8.120;2022-09-09T04:47:08;1.65;;;0.85;;
46455;SDS011;32154;47.160;8.120;2022-09-09T04:52:13;1.55;;;1.02;;
46455;SDS011;32154;47.160;8.120;2022-09-09T04:57:34;5.22;;;1.35;;
46455;SDS011;32154;47.160;8.120;2022-09-09T05:02:37;1.50;;;0.93;;
46455;SDS011;32154;47.160;8.120;2022-09-09T05:07:42;1.42;;;0.90;;
46455;SDS011;32154;47.160;8.120;2022-09-09T05:12:54;2.95;;;1.00;;
46455;SDS011;32154;47.160;8.120;2022-09-09T05:18:00;2.10;;;0.98;;
46455;SDS011;32154;47.160;8.120;2022-09-09T05:23:07;2.40;;;1.15;;
46455;SDS011;32154;47.160;8.120;2022-09-09T05:28:28;1.40;;;0.95;;
46455;SDS011;32154;47.160;8.120;2022-09-09T05:33:31;1.02;;;0.80;;
46455;SDS011;32154;47.160;8.120;2022-09-09T05:38:34;3.28;;;1.17;;
46455;SDS011;32154;47.160;8.120;2022-09-09T05:43:38;1.80;;;1.20;;
46455;SDS011;32154;47.160;8.120;2022-09-09T05:49:01;1.27;;;0.88;;
46455;SDS011;32154;47.160;8.120;2022-09-09T05:54:22;4.68;;;1.10;;
46455;SDS011;32154;47.160;8.120;2022-09-09T05:59:26;2.20;;;1.27;;
46455;SDS011;32154;47.160;8.120;2022-09-09T06:04:30;1.23;;;0.88;;
46455;SDS011;32154;47.160;8.120;2022-09-09T06:09:34;1.40;;;0.98;;
46455;SDS011;32154;47.160;8.120;2022-09-09T06:14:40;1.58;;;0.88;;
46455;SDS011;32154;47.160;8.120;2022-09-09T06:19:49;1.33;;;1.05;;
46455;SDS011;32154;47.160;8.120;2022-09-09T06:24:53;1.95;;;0.73;;
46455;SDS011;32154;47.160;8.120;2022-09-09T06:29:56;4.30;;;1.20;;
46455;SDS011;32154;47.160;8.120;2022-09-09T06:34:58;1.63;;;1.02;;
46455;SDS011;32154;47.160;8.120;2022-09-09T06:40:01;1.35;;;0.90;;
46455;SDS011;32154;47.160;8.120;2022-09-09T06:45:05;1.48;;;0.85;;
46455;SDS011;32154;47.160;8.120;2022-09-09T06:50:26;3.05;;;1.70;;
46455;SDS011;32154;47.160;8.120;2022-09-09T06:55:48;3.60;;;1.30;;
46455;SDS011;32154;47.160;8.120;2022-09-09T07:00:51;2.63;;;1.10;;
46455;SDS011;32154;47.160;8.120;2022-09-09T07:06:22;4.70;;;1.83;;
46455;SDS011;32154;47.160;8.120;2022-09-09T07:11:33;5.13;;;1.85;;
46455;SDS011;32154;47.160;8.120;2022-09-09T07:17:02;2.50;;;1.20;;
46455;SDS011;32154;47.160;8.120;2022-09-09T07:22:11;2.92;;;1.38;;
46455;SDS011;32154;47.160;8.120;2022-09-09T07:27:14;3.10;;;1.95;;
46455;SDS011;32154;47.160;8.120;2022-09-09T07:32:17;1.20;;;0.70;;
46455;SDS011;32154;47.160;8.120;2022-09-09T07:37:21;2.80;;;1.00;;
46455;SDS011;32154;47.160;8.120;2022-09-09T07:42:25;2.85;;;1.77;;
46455;SDS011;32154;47.160;8.120;2022-09-09T07:47:28;2.05;;;0.93;;
46455;SDS011;32154;47.160;8.120;2022-09-09T07:52:34;1.33;;;0.70;;
46455;SDS011;32154;47.160;8.120;2022-09-09T07:57:40;4.18;;;0.70;;
46455;SDS011;32154;47.160;8.120;2022-09-09T08:02:43;0.57;;;0.28;;
46455;SDS011;32154;47.160;8.120;2022-09-09T08:08:04;1.30;;;0.57;;
46455;SDS011;32154;47.160;8.120;2022-09-09T08:13:25;1.63;;;0.60;;
46455;SDS011;32154;47.160;8.120;2022-09-09T08:18:30;1.08;;;0.50;;
46455;SDS011;32154;47.160;8.120;2022-09-09T08:23:35;2.42;;;0.60;;
46455;SDS011;32154;47.160;8.120;2022-09-09T08:28:39;0.75;;;0.30;;
46455;SDS011;32154;47.160;8.120;2022-09-09T08:33:43;1.42;;;0.40;;
46455;SDS011;32154;47.160;8.120;2022-09-09T08:39:04;0.63;;;0.35;;
46455;SDS011;32154;47.160;8.120;2022-09-09T08:44:10;0.75;;;0.55;;
46455;SDS011;32154;47.160;8.120;2022-09-09T08:55:17;2.85;;;0.45;;
46455;SDS011;32154;47.160;8.120;2022-09-09T09:00:31;2.22;;;0.57;;
46455;SDS011;32154;47.160;8.120;2022-09-09T09:06:04;1.67;;;0.63;;
46455;SDS011;32154;47.160;8.120;2022-09-09T09:11:24;1.05;;;0.40;;
46455;SDS011;32154;47.160;8.120;2022-09-09T09:16:29;1.55;;;0.40;;
46455;SDS011;32154;47.160;8.120;2022-09-09T09:22:18;0.68;;;0.20;;
46455;SDS011;32154;47.160;8.120;2022-09-09T09:27:49;2.65;;;0.40;;
46455;SDS011;32154;47.160;8.120;2022-09-09T09:33:27;1.67;;;0.60;;
46455;SDS011;32154;47.160;8.120;2022-09-09T09:38:36;0.98;;;0.43;;
46455;SDS011;32154;47.160;8.120;2022-09-09T09:43:59;1.60;;;0.35;;
46455;SDS011;32154;47.160;8.120;2022-09-09T09:49:04;3.63;;;0.40;;
46455;SDS011;32154;47.160;8.120;2022-09-09T09:54:15;0.50;;;0.30;;
46455;SDS011;32154;47.160;8.120;2022-09-09T09:59:49;1.48;;;0.40;;
46455;SDS011;32154;47.160;8.120;2022-09-09T10:05:14;1.13;;;0.45;;
46455;SDS011;32154;47.160;8.120;2022-09-09T10:10:25;0.27;;;0.20;;
46455;SDS011;32154;47.160;8.120;2022-09-09T10:15:50;1.05;;;0.90;;
46455;SDS011;32154;47.160;8.120;2022-09-09T10:26:48;0.93;;;0.30;;
46455;SDS011;32154;47.160;8.120;2022-09-09T10:32:37;0.85;;;0.35;;
46455;SDS011;32154;47.160;8.120;2022-09-09T10:38:10;1.05;;;0.38;;
46455;SDS011;32154;47.160;8.120;2022-09-09T10:49:13;3.28;;;0.47;;
46455;SDS011;32154;47.160;8.120;2022-09-09T11:00:41;1.88;;;0.30;;
46455;SDS011;32154;47.160;8.120;2022-09-09T11:06:06;1.95;;;0.30;;
46455;SDS011;32154;47.160;8.120;2022-09-09T11:11:34;1.02;;;0.25;;
46455;SDS011;32154;47.160;8.120;2022-09-09T11:43:31;0.60;;;0.50;;
46455;SDS011;32154;47.160;8.120;2022-09-09T11:48:35;1.00;;;0.63;;
46455;SDS011;32154;47.160;8.120;2022-09-09T11:53:55;1.15;;;0.40;;
46455;SDS011;32154;47.160;8.120;2022-09-09T11:59:30;0.90;;;0.30;;
46455;SDS011;32154;47.160;8.120;2022-09-09T12:14:56;0.93;;;0.32;;
46455;SDS011;32154;47.160;8.120;2022-09-09T12:20:13;1.27;;;0.45;;
46455;SDS011;32154;47.160;8.120;2022-09-09T12:25:45;1.23;;;0.35;;
46455;SDS011;32154;47.160;8.120;2022-09-09T12:31:19;2.03;;;0.82;;
46455;SDS011;32154;47.160;8.120;2022-09-09T12:36:32;0.65;;;0.32;;
46455;SDS011;32154;47.160;8.120;2022-09-09T12:41:35;0.63;;;0.40;;
46455;SDS011;32154;47.160;8.120;2022-09-09T12:46:58;1.27;;;0.90;;
46455;SDS011;32154;47.160;8.120;2022-09-09T12:57:38;0.75;;;0.40;;
46455;SDS011;32154;47.160;8.120;2022-09-09T13:02:48;0.52;;;0.40;;
46455;SDS011;32154;47.160;8.120;2022-09-09T13:08:09;1.85;;;0.55;;
46455;SDS011;32154;47.160;8.120;2022-09-09T13:13:19;1.65;;;0.32;;
46455;SDS011;32154;47.160;8.120;2022-09-09T13:18:40;2.25;;;0.32;;
46455;SDS011;32154;47.160;8.120;2022-09-09T13:23:47;1.00;;;0.30;;
46455;SDS011;32154;47.160;8.120;2022-09-09T13:28:51;1.40;;;0.50;;
46455;SDS011;32154;47.160;8.120;2022-09-09T13:33:55;0.73;;;0.40;;
46455;SDS011;32154;47.160;8.120;2022-09-09T13:39:16;0.57;;;0.45;;
46455;SDS011;32154;47.160;8.120;2022-09-09T13:44:20;1.85;;;0.35;;
46455;SDS011;32154;47.160;8.120;2022-09-09T13:56:15;0.30;;;0.30;;
46455;SDS011;32154;47.160;8.120;2022-09-09T14:01:17;1.67;;;0.30;;
46455;SDS011;32154;47.160;8.120;2022-09-09T14:06:20;0.55;;;0.20;;
46455;SDS011;32154;47.160;8.120;2022-09-09T14:11:24;2.38;;;0.47;;
46455;SDS011;32154;47.160;8.120;2022-09-09T14:16:29;1.08;;;0.15;;
46455;SDS011;32154;47.160;8.120;2022-09-09T14:21:31;1.45;;;0.30;;
46455;SDS011;32154;47.160;8.120;2022-09-09T14:26:36;1.65;;;0.38;;
46455;SDS011;32154;47.160;8.120;2022-09-09T14:31:38;1.00;;;0.20;;
46455;SDS011;32154;47.160;8.120;2022-09-09T14:36:40;1.75;;;0.20;;
46455;SDS011;32154;47.160;8.120;2022-09-09T14:41:43;2.72;;;0.70;;
46455;SDS011;32154;47.160;8.120;2022-09-09T14:47:05;0.40;;;0.30;;
46455;SDS011;32154;47.160;8.120;2022-09-09T14:52:07;1.13;;;0.20;;
46455;SDS011;32154;47.160;8.120;2022-09-09T14:57:10;1.58;;;0.85;;
46455;SDS011;32154;47.160;8.120;2022-09-09T15:02:34;1.95;;;0.30;;
46455;SDS011;32154;47.160;8.120;2022-09-09T15:07:42;0.68;;;0.25;;
46455;SDS011;32154;47.160;8.120;2022-09-09T15:12:45;2.10;;;0.30;;
46455;SDS011;32154;47.160;8.120;2022-09-09T15:18:05;0.25;;;0.13;;
46455;SDS011;32154;47.160;8.120;2022-09-09T15:23:08;0.57;;;0.10;;
46455;SDS011;32154;47.160;8.120;2022-09-09T15:28:10;1.77;;;0.20;;
46455;SDS011;32154;47.160;8.120;2022-09-09T15:33:12;1.48;;;0.20;;
46455;SDS011;32154;47.160;8.120;2022-09-09T15:38:18;2.72;;;0.30;;
46455;SDS011;32154;47.160;8.120;2022-09-09T15:43:20;1.38;;;0.25;;
46455;SDS011;32154;47.160;8.120;2022-09-09T15:48:44;1.42;;;0.20;;
46455;SDS011;32154;47.160;8.120;2022-09-09T15:53:57;5.72;;;0.40;;
46455;SDS011;32154;47.160;8.120;2022-09-09T15:59:20;1.02;;;0.30;;
46455;SDS011;32154;47.160;8.120;2022-09-09T16:04:26;1.15;;;0.20;;
46455;SDS011;32154;47.160;8.120;2022-09-09T16:09:47;0.93;;;0.20;;
46455;SDS011;32154;47.160;8.120;2022-09-09T16:14:52;1.33;;;0.30;;
46455;SDS011;32154;47.160;8.120;2022-09-09T16:19:54;1.73;;;0.30;;
46455;SDS011;32154;47.160;8.120;2022-09-09T16:24:56;0.90;;;0.15;;
46455;SDS011;32154;47.160;8.120;2022-09-09T16:29:59;0.73;;;0.20;;
46455;SDS011;32154;47.160;8.120;2022-09-09T16:35:29;1.23;;;1.13;;
46455;SDS011;32154;47.160;8.120;2022-09-09T16:40:58;0.52;;;0.10;;
46455;SDS011;32154;47.160;8.120;2022-09-09T16:51:47;0.20;;;0.10;;
46455;SDS011;32154;47.160;8.120;2022-09-09T16:56:54;2.92;;;0.70;;
46455;SDS011;32154;47.160;8.120;2022-09-09T17:02:12;1.48;;;0.20;;
46455;SDS011;32154;47.160;8.120;2022-09-09T17:07:14;0.55;;;0.20;;
46455;SDS011;32154;47.160;8.120;2022-09-09T17:12:16;0.52;;;0.25;;
46455;SDS011;32154;47.160;8.120;2022-09-09T17:17:18;0.70;;;0.30;;
46455;SDS011;32154;47.160;8.120;2022-09-09T17:22:53;0.68;;;0.20;;
46455;SDS011;32154;47.160;8.120;2022-09-09T17:27:58;0.90;;;0.23;;
46455;SDS011;32154;47.160;8.120;2022-09-09T17:33:04;1.05;;;0.20;;
46455;SDS011;32154;47.160;8.120;2022-09-09T17:38:06;2.10;;;0.20;;
46455;SDS011;32154;47.160;8.120;2022-09-09T17:43:08;0.38;;;0.20;;
46455;SDS011;32154;47.160;8.120;2022-09-09T17:48:14;0.95;;;0.28;;
46455;SDS011;32154;47.160;8.120;2022-09-09T17:53:17;0.55;;;0.20;;
46455;SDS011;32154;47.160;8.120;2022-09-09T17:58:38;0.60;;;0.28;;
46455;SDS011;32154;47.160;8.120;2022-09-09T18:03:42;0.38;;;0.15;;
46455;SDS011;32154;47.160;8.120;2022-09-09T18:08:49;0.75;;;0.20;;
46455;SDS011;32154;47.160;8.120;2022-09-09T18:13:54;0.20;;;0.20;;
46455;SDS011;32154;47.160;8.120;2022-09-09T18:19:18;0.60;;;0.20;;
46455;SDS011;32154;47.160;8.120;2022-09-09T18:24:42;0.28;;;0.20;;
46455;SDS011;32154;47.160;8.120;2022-09-09T18:30:03;0.80;;;0.40;;
46455;SDS011;32154;47.160;8.120;2022-09-09T18:35:08;0.75;;;0.20;;
46455;SDS011;32154;47.160;8.120;2022-09-09T18:40:11;0.25;;;0.20;;
46455;SDS011;32154;47.160;8.120;2022-09-09T18:45:14;2.22;;;0.75;;
46455;SDS011;32154;47.160;8.120;2022-09-09T18:50:41;1.02;;;0.40;;
46455;SDS011;32154;47.160;8.120;2022-09-09T18:55:45;0.55;;;0.25;;
46455;SDS011;32154;47.160;8.120;2022-09-09T19:00:47;0.47;;;0.40;;
46455;SDS011;32154;47.160;8.120;2022-09-09T19:05:50;0.73;;;0.40;;
46455;SDS011;32154;47.160;8.120;2022-09-09T19:11:13;0.30;;;0.30;;
46455;SDS011;32154;47.160;8.120;2022-09-09T19:16:19;0.88;;;0.30;;
46455;SDS011;32154;47.160;8.120;2022-09-09T19:21:41;0.43;;;0.20;;
46455;SDS011;32154;47.160;8.120;2022-09-09T19:26:45;0.70;;;0.40;;
46455;SDS011;32154;47.160;8.120;2022-09-09T19:31:50;0.85;;;0.20;;
46455;SDS011;32154;47.160;8.120;2022-09-09T19:37:13;1.10;;;0.40;;
46455;SDS011;32154;47.160;8.120;2022-09-09T19:42:19;0.65;;;0.20;;
46455;SDS011;32154;47.160;8.120;2022-09-09T19:47:22;1.25;;;0.50;;
46455;SDS011;32154;47.160;8.120;2022-09-09T19:52:30;0.77;;;0.40;;
46455;SDS011;32154;47.160;8.120;2022-09-09T19:57:34;0.57;;;0.45;;
46455;SDS011;32154;47.160;8.120;2022-09-09T20:02:37;0.90;;;0.70;;
46455;SDS011;32154;47.160;8.120;2022-09-09T20:07:40;1.15;;;0.70;;
46455;SDS011;32154;47.160;8.120;2022-09-09T20:13:02;5.25;;;1.52;;
46455;SDS011;32154;47.160;8.120;2022-09-09T20:18:05;0.98;;;0.70;;
46455;SDS011;32154;47.160;8.120;2022-09-09T20:23:07;2.60;;;1.05;;
46455;SDS011;32154;47.160;8.120;2022-09-09T20:28:10;2.92;;;0.40;;
46455;SDS011;32154;47.160;8.120;2022-09-09T20:33:13;1.00;;;0.50;;
46455;SDS011;32154;47.160;8.120;2022-09-09T20:38:15;1.00;;;0.30;;
46455;SDS011;32154;47.160;8.120;2022-09-09T20:43:36;0.88;;;0.20;;
46455;SDS011;32154;47.160;8.120;2022-09-09T20:48:39;2.58;;;0.30;;
46455;SDS011;32154;47.160;8.120;2022-09-09T20:53:42;0.77;;;0.15;;
46455;SDS011;32154;47.160;8.120;2022-09-09T20:58:44;0.20;;;0.13;;
46455;SDS011;32154;47.160;8.120;2022-09-09T21:03:46;1.05;;;0.17;;
46455;SDS011;32154;47.160;8.120;2022-09-09T21:08:58;0.10;;;0.10;;
46455;SDS011;32154;47.160;8.120;2022-09-09T21:14:03;0.17;;;0.10;;
46455;SDS011;32154;47.160;8.120;2022-09-09T21:19:06;0.43;;;0.32;;
46455;SDS011;32154;47.160;8.120;2022-09-09T21:24:09;0.20;;;0.10;;
46455;SDS011;32154;47.160;8.120;2022-09-09T21:29:17;0.77;;;0.10;;
46455;SDS011;32154;47.160;8.120;2022-09-09T21:34:19;0.20;;;0.03;;
46455;SDS011;32154;47.160;8.120;2022-09-09T21:39:23;1.45;;;0.47;;
46455;SDS011;32154;47.160;8.120;2022-09-09T21:44:26;0.47;;;0.20;;
46455;SDS011;32154;47.160;8.120;2022-09-09T21:49:30;0.75;;;0.22;;
46455;SDS011;32154;47.160;8.120;2022-09-09T21:54:44;0.22;;;0.20;;
46455;SDS011;32154;47.160;8.120;2022-09-09T21:59:48;0.27;;;0.20;;
46455;SDS011;32154;47.160;8.120;2022-09-09T22:04:50;1.58;;;0.30;;
46455;SDS011;32154;47.160;8.120;2022-09-09T22:09:55;0.20;;;0.20;;
46455;SDS011;32154;47.160;8.120;2022-09-09T22:14:58;0.80;;;0.20;;
46455;SDS011;32154;47.160;8.120;2022-09-09T22:20:00;0.22;;;0.20;;
46455;SDS011;32154;47.160;8.120;2022-09-09T22:25:04;0.47;;;0.22;;
46455;SDS011;32154;47.160;8.120;2022-09-09T22:30:11;0.10;;;0.10;;
46455;SDS011;32154;47.160;8.120;2022-09-09T22:35:15;1.45;;;0.20;;
46455;SDS011;32154;47.160;8.120;2022-09-09T22:40:19;0.20;;;0.20;;
46455;SDS011;32154;47.160;8.120;2022-09-09T22:45:32;0.13;;;0.13;;
46455;SDS011;32154;47.160;8.120;2022-09-09T22:50:38;0.20;;;0.20;;
46455;SDS011;32154;47.160;8.120;2022-09-09T23:01:25;0.93;;;0.90;;
46455;SDS011;32154;47.160;8.120;2022-09-09T23:06:56;0.13;;;0.10;;
46455;SDS011;32154;47.160;8.120;2022-09-09T23:12:05;0.30;;;0.28;;
46455;SDS011;32154;47.160;8.120;2022-09-09T23:17:30;0.55;;;0.20;;
46455;SDS011;32154;47.160;8.120;2022-09-09T23:22:59;1.00;;;0.57;;
46455;SDS011;32154;47.160;8.120;2022-09-09T23:28:08;1.08;;;0.38;;
46455;SDS011;32154;47.160;8.120;2022-09-09T23:33:11;0.20;;;0.20;;
46455;SDS011;32154;47.160;8.120;2022-09-09T23:38:17;0.38;;;0.30;;
46455;SDS011;32154;47.160;8.120;2022-09-09T23:43:31;0.60;;;0.30;;
46455;SDS011;32154;47.160;8.120;2022-09-09T23:48:39;0.80;;;0.40;;
46455;SDS011;32154;47.160;8.120;2022-09-09T23:53:48;0.30;;;0.30;;
46455;SDS011;32154;47.160;8.120;2022-09-09T23:59:04;2.30;;;0.30;;
